Terminal Aerodrome Forecast
Issued by NWS Cleveland, OH

Home | Current Version | Previous Version | Text Only | Print | Product List | Glossary Off
Versions: 1 2 3 4 5 6 7 8 9 10 11 12 13 14 15 16

000
FTUS41 KCLE 301500 AAB
TAFERI
TAF AMD
KERI 301500Z 3015/0112 32005KT P6SM OVC060
      TEMPO 3015/3017 4SM -SHRA BR BKN004 OVC060
     FM301700 35008KT P6SM -SHRA SCT015 OVC035
      TEMPO 3017/3021 BKN015 OVC035
     FM010100 02005KT P6SM SCT050=

USA.gov is the U.S. government's official web portal to all federal, state and local government web resources and services.